LIMC/MXP METAR and TAF weather

Enter ICAO airport designator
Station Type Date Time Source
LIMC METAR 2019/08/24 22:50 UTC NOAA

LIMC 242250Z 36005KT CAVOK 21/18 Q1019 NOSIG


Station Type Date Time Source
LIMC Decoded METAR 2019/08/24 22:50 UTC NOAA

Station name not available
Aug 24, 2019 - 06:50 PM EDT / 2019.08.24 2250 UTC
Wind: from the N (360 degrees) at 6 MPH (5 KT):0
Visibility: greater than 7 mile(s):0
Temperature: 69 F (21 C)
Dew Point: 64 F (18 C)
Relative Humidity: 82%
Pressure (altimeter): 30.09 in. Hg (1019 hPa)
ob: LIMC 242250Z 36005KT CAVOK 21/18 Q1019 NOSIG
cycle: 23

Station Type Date Time Source
LIMC TAF 2019/08/24 18:21 UTC NOAA

TAF LIMC 241700Z 2418/2524 VRB05KT 9999 SCT060 PROB30
TEMPO 2420/2502

Example: see airport list